Time;durP1;ratioP1;P1;durP2;ratioP2;P2;SDS_P1;SDS_P2;PMS_P1;PMS_P2;Temp;Humidity;BMP_temperature;BMP_pressure;BME280_temperature;BME280_humidity;BME280_pressure;Samples;Min_cycle;Max_cycle;Signal;HPM_P1;HPM_P2
2023/05/15 00:00:55;;;;;;;;;;;;;;;24.77;33.86;101061.81;5088265;28;1031;-43
2023/05/15 00:03:21;;;;;;;;;;;;;;;24.76;33.83;101060.13;5097097;28;1023;-43
2023/05/15 00:05:46;;;;;;;;;;;;;;;24.75;33.88;101074.59;5098079;28;1189;-43
2023/05/15 00:08:12;;;;;;;;;;;;;;;24.68;34.14;101070.84;5080005;28;1174;-42
2023/05/15 00:10:37;;;;;;;;;;;;;;;24.76;33.99;101057.44;5091471;28;1150;-43
2023/05/15 00:13:03;;;;;;;;;;;;;;;24.77;33.79;101064.53;5095760;28;1206;-42
2023/05/15 00:15:28;;;;;;;;;;;;;;;24.75;33.74;101062.97;5097002;28;1914;-43
2023/05/15 00:17:54;;;;;;;;;;;;;;;24.75;33.87;101057.59;5079215;28;1234;-42
2023/05/15 00:20:20;;;;;;;;;;;;;;;24.73;34.00;101064.97;5097475;28;1131;-43
2023/05/15 00:22:45;;;;;;;;;;;;;;;24.78;33.80;101057.28;5091114;28;1162;-41
2023/05/15 00:25:11;;;;;;;;;;;;;;;24.78;33.80;101062.66;5088367;28;1214;-43
2023/05/15 00:27:36;;;;;;;;;;;;;;;24.82;33.64;101069.41;5096834;28;1094;-44
2023/05/15 00:30:03;;;;;;;;;;;;;;;24.74;33.99;101062.13;5097610;28;1241;-42
2023/05/15 00:32:28;;;;;;;;;;;;;;;24.70;34.02;101067.00;5065305;28;1221;-43
2023/05/15 00:34:54;;;;;;;;;;;;;;;24.73;33.99;101060.44;5071857;28;1906;-44
2023/05/15 00:37:19;;;;;;;;;;;;;;;24.74;33.83;101051.34;5062999;28;1217;-42
2023/05/15 00:39:45;;;;;;;;;;;;;;;24.75;33.95;101061.13;5078804;28;1078;-43
2023/05/15 00:42:11;;;;;;;;;;;;;;;24.70;34.09;101066.16;5097004;28;1058;-43
2023/05/15 00:44:36;;;;;;;;;;;;;;;24.66;34.19;101054.00;5079032;28;1071;-43
2023/05/15 00:47:02;;;;;;;;;;;;;;;24.73;34.05;101054.22;5071934;28;1190;-43
2023/05/15 00:49:28;;;;;;;;;;;;;;;24.69;33.97;101057.22;5068975;28;1075;-43
2023/05/15 00:51:54;;;;;;;;;;;;;;;24.67;34.12;101053.84;5096791;28;1166;-43
2023/05/15 00:54:19;;;;;;;;;;;;;;;24.66;34.09;101057.53;5078780;28;1910;-43
2023/05/15 00:56:46;;;;;;;;;;;;;;;24.66;33.86;101059.38;5078021;28;1205;-43
2023/05/15 00:59:12;;;;;;;;;;;;;;;24.72;33.83;101053.38;5088934;28;1138;-43
2023/05/15 01:01:38;;;;;;;;;;;;;;;24.68;33.91;101049.31;5075719;28;1126;-43
2023/05/15 01:04:03;;;;;;;;;;;;;;;24.66;33.97;101051.31;5068227;28;1116;-43
2023/05/15 01:06:29;;;;;;;;;;;;;;;24.66;33.79;101048.63;5096716;28;1155;-43
2023/05/15 01:08:55;;;;;;;;;;;;;;;24.73;33.83;101040.75;5096912;28;1175;-43
2023/05/15 01:11:21;;;;;;;;;;;;;;;24.66;33.84;101033.34;5088020;28;1050;-43
2023/05/15 01:13:47;;;;;;;;;;;;;;;24.62;34.05;101026.59;5068267;28;1238;-44
2023/05/15 01:16:12;;;;;;;;;;;;;;;24.73;33.84;101021.94;5077991;28;1902;-43
2023/05/15 01:18:38;;;;;;;;;;;;;;;24.68;34.03;101019.72;5096737;28;1026;-44
2023/05/15 01:21:07;;;;;;;;;;;;;;;24.72;33.88;101022.94;5090083;28;1211;-41
2023/05/15 01:23:50;;;;;;;;;;;;;;;24.68;34.06;101027.78;5068247;28;1043;-43
2023/05/15 01:26:16;;;;;;;;;;;;;;;24.66;34.09;101025.28;5082294;28;1286;-43
2023/05/15 01:28:44;;;;;;;;;;;;;;;24.69;33.85;101018.75;5096308;28;1222;-43
2023/05/15 01:31:11;;;;;;;;;;;;;;;24.62;34.00;101023.06;5061903;28;1126;-43
2023/05/15 01:33:37;;;;;;;;;;;;;;;24.66;33.95;101009.13;5096628;28;1111;-43
2023/05/15 01:36:09;;;;;;;;;;;;;;;24.64;34.24;101013.81;5065456;28;1972;-43
2023/05/15 01:38:35;;;;;;;;;;;;;;;24.66;34.25;101001.06;5072586;28;1201;-43
2023/05/15 01:41:24;;;;;;;;;;;;;;;24.62;34.17;100993.47;5078720;28;1159;-43
2023/05/15 01:44:00;;;;;;;;;;;;;;;24.58;34.33;100991.09;5049685;28;1148;-42
2023/05/15 01:46:26;;;;;;;;;;;;;;;24.72;34.13;100971.84;5078541;28;1118;-43
2023/05/15 01:48:52;;;;;;;;;;;;;;;24.76;33.91;100959.72;5059536;28;1171;-43
2023/05/15 01:51:17;;;;;;;;;;;;;;;24.63;34.15;100957.50;5070845;28;1434;-44
2023/05/15 01:53:43;;;;;;;;;;;;;;;24.68;34.14;100961.41;5077726;28;1035;-44
2023/05/15 01:56:11;;;;;;;;;;;;;;;24.58;34.26;100966.91;5078119;28;1913;-44
2023/05/15 01:58:37;;;;;;;;;;;;;;;24.68;34.00;100974.00;5073155;28;1573;-43
2023/05/15 02:01:05;;;;;;;;;;;;;;;24.61;34.19;100965.72;5087907;28;968;-43
2023/05/15 02:03:33;;;;;;;;;;;;;;;24.61;34.32;100964.91;5078134;28;1059;-43
2023/05/15 02:05:59;;;;;;;;;;;;;;;24.61;34.36;100960.34;5078693;28;1191;-42
2023/05/15 02:08:27;;;;;;;;;;;;;;;24.55;34.28;100961.00;5077425;28;1083;-43
2023/05/15 02:10:54;;;;;;;;;;;;;;;24.54;34.31;100951.25;5077799;28;1249;-43
2023/05/15 02:13:19;;;;;;;;;;;;;;;24.57;34.38;100957.13;5083161;28;1218;-43
2023/05/15 02:15:45;;;;;;;;;;;;;;;24.67;34.23;100946.25;5099658;28;1913;-43
2023/05/15 02:18:12;;;;;;;;;;;;;;;24.63;34.18;100944.03;5099459;28;1091;-43
2023/05/15 02:20:38;;;;;;;;;;;;;;;24.62;34.27;100950.44;5081818;28;1023;-43
2023/05/15 02:23:03;;;;;;;;;;;;;;;24.69;34.08;100954.19;5062907;28;1138;-43
2023/05/15 02:25:32;;;;;;;;;;;;;;;24.66;34.25;100958.03;5079099;28;1104;-43
2023/05/15 02:27:59;;;;;;;;;;;;;;;24.66;34.13;100957.16;5054817;28;969;-43
2023/05/15 02:30:37;;;;;;;;;;;;;;;24.65;34.23;100961.72;5081562;28;1079;-43
2023/05/15 02:33:09;;;;;;;;;;;;;;;24.66;34.21;100965.22;5076299;28;1206;-43
2023/05/15 02:35:51;;;;;;;;;;;;;;;24.66;34.23;100947.25;5094419;28;1910;-43
2023/05/15 02:38:34;;;;;;;;;;;;;;;24.62;34.35;100947.75;5090213;28;1075;-43
2023/05/15 02:41:00;;;;;;;;;;;;;;;24.62;34.49;100942.38;5055758;28;1032;-43
2023/05/15 02:43:25;;;;;;;;;;;;;;;24.65;34.29;100934.81;5081184;28;1137;-43
2023/05/15 02:45:51;;;;;;;;;;;;;;;24.61;34.36;100935.31;5072445;28;957;-41
2023/05/15 02:48:16;;;;;;;;;;;;;;;24.57;34.54;100929.41;5071075;28;1234;-42
2023/05/15 02:50:42;;;;;;;;;;;;;;;24.57;34.56;100937.47;5072795;28;1131;-43
2023/05/15 02:53:08;;;;;;;;;;;;;;;24.55;34.49;100932.25;5098849;28;1046;-43
2023/05/15 02:55:34;;;;;;;;;;;;;;;24.56;34.58;100933.09;5098817;28;1980;-43
2023/05/15 02:58:00;;;;;;;;;;;;;;;24.59;34.47;100932.75;5099465;28;1074;-41
2023/05/15 03:00:25;;;;;;;;;;;;;;;24.58;34.50;100931.94;5077111;28;942;-42
2023/05/15 03:02:52;;;;;;;;;;;;;;;24.63;34.49;100944.03;5080723;28;1583;-43
2023/05/15 03:05:17;;;;;;;;;;;;;;;24.64;34.53;100938.50;5098457;28;1019;-43
2023/05/15 03:07:43;;;;;;;;;;;;;;;24.64;34.42;100935.81;5080065;28;1058;-42
2023/05/15 03:10:09;;;;;;;;;;;;;;;24.66;34.31;100925.75;5073791;28;1308;-42
2023/05/15 03:12:35;;;;;;;;;;;;;;;24.57;34.69;100937.47;5080943;28;1070;-43
2023/05/15 03:15:00;;;;;;;;;;;;;;;24.59;34.62;100932.75;5060251;28;1902;-43
2023/05/15 03:17:26;;;;;;;;;;;;;;;24.51;34.83;100930.03;5092149;28;1159;-43
2023/05/15 03:19:52;;;;;;;;;;;;;;;24.62;34.70;100931.63;5092455;28;1230;-44
2023/05/15 03:22:17;;;;;;;;;;;;;;;24.43;34.97;100923.63;5073951;28;1401;-43
2023/05/15 03:24:43;;;;;;;;;;;;;;;24.56;34.61;100919.63;5077968;28;992;-43
2023/05/15 03:27:08;;;;;;;;;;;;;;;24.46;34.96;100926.00;5091194;28;1078;-44
2023/05/15 03:29:34;;;;;;;;;;;;;;;24.59;34.72;100922.00;5080460;28;1222;-45
2023/05/15 03:32:00;;;;;;;;;;;;;;;24.63;34.70;100925.22;5098471;28;1182;-43
2023/05/15 03:34:25;;;;;;;;;;;;;;;24.63;34.57;100930.59;5079896;28;1917;-43
2023/05/15 03:36:51;;;;;;;;;;;;;;;24.45;34.88;100929.69;5087074;28;1106;-44
2023/05/15 03:39:16;;;;;;;;;;;;;;;23.16;38.44;100937.19;5083525;28;1079;-43
2023/05/15 03:41:42;;;;;;;;;;;;;;;22.33;40.01;100928.97;5080362;28;1095;-44
2023/05/15 03:44:07;;;;;;;;;;;;;;;22.78;39.33;100931.91;5098070;28;1091;-43
2023/05/15 03:46:33;;;;;;;;;;;;;;;23.40;37.87;100928.59;5097825;28;1130;-43
2023/05/15 03:48:59;;;;;;;;;;;;;;;23.85;36.56;100931.31;5075151;28;1238;-43
2023/05/15 03:51:25;;;;;;;;;;;;;;;23.97;36.25;100929.22;5079786;28;1166;-44
2023/05/15 03:53:52;;;;;;;;;;;;;;;24.04;36.39;100929.44;5073730;28;1130;-45
2023/05/15 03:56:21;;;;;;;;;;;;;;;24.57;36.04;100937.47;5060071;28;1910;-44
2023/05/15 03:58:47;;;;;;;;;;;;;;;24.77;35.65;100951.53;5079968;28;1102;-44
2023/05/15 04:01:12;;;;;;;;;;;;;;;24.94;35.44;100946.22;5084503;28;1153;-44
2023/05/15 04:03:38;;;;;;;;;;;;;;;24.79;35.26;100954.06;5078090;28;1071;-44
2023/05/15 04:06:04;;;;;;;;;;;;;;;24.61;36.15;100954.16;5091001;28;1035;-44
2023/05/15 04:08:29;;;;;;;;;;;;;;;24.93;34.89;100957.97;5097661;28;1118;-43
2023/05/15 04:10:55;;;;;;;;;;;;;;;24.97;34.96;100956.66;5097973;28;1143;-42
2023/05/15 04:13:20;;;;;;;;;;;;;;;24.33;36.19;100952.47;5083877;28;1098;-44
2023/05/15 04:15:47;;;;;;;;;;;;;;;24.40;35.35;100941.94;5090432;28;1918;-43
2023/05/15 04:18:13;;;;;;;;;;;;;;;24.25;36.12;100938.97;5097562;28;1058;-44
2023/05/15 04:20:38;;;;;;;;;;;;;;;24.54;35.23;100937.81;5097578;28;1222;-44
2023/05/15 04:23:04;;;;;;;;;;;;;;;24.39;35.77;100951.00;5096992;28;1141;-44
2023/05/15 04:25:30;;;;;;;;;;;;;;;24.70;35.04;100959.41;5084178;28;846;-43
2023/05/15 04:27:55;;;;;;;;;;;;;;;24.82;34.81;100959.94;5095965;28;1067;-44
2023/05/15 04:30:21;;;;;;;;;;;;;;;24.76;34.84;100960.59;5096983;28;1075;-43
2023/05/15 04:32:47;;;;;;;;;;;;;;;24.78;34.79;100969.34;5097199;28;1099;-42
2023/05/15 04:35:14;;;;;;;;;;;;;;;24.96;34.64;100976.50;5097217;28;1905;-44
2023/05/15 04:37:40;;;;;;;;;;;;;;;24.97;34.47;100978.19;5081654;28;1193;-44
2023/05/15 04:40:06;;;;;;;;;;;;;;;24.83;34.69;100972.38;5088909;28;1024;-45
2023/05/15 04:42:32;;;;;;;;;;;;;;;24.89;34.63;100972.75;5096987;28;1178;-44
2023/05/15 04:44:58;;;;;;;;;;;;;;;24.75;34.83;100971.50;5097329;28;1186;-46
2023/05/15 04:47:24;;;;;;;;;;;;;;;24.83;34.70;100976.91;5096892;28;1086;-44
2023/05/15 04:49:50;;;;;;;;;;;;;;;24.83;34.44;100975.09;5081819;28;900;-43
2023/05/15 04:52:15;;;;;;;;;;;;;;;24.56;35.01;100976.97;5095414;28;928;-42
2023/05/15 04:54:41;;;;;;;;;;;;;;;24.81;34.77;100987.84;5096635;28;1905;-43
2023/05/15 04:57:07;;;;;;;;;;;;;;;24.86;34.54;100987.34;5097116;28;1245;-43
2023/05/15 04:59:32;;;;;;;;;;;;;;;24.90;34.48;100993.25;5096616;28;1190;-43
2023/05/15 05:01:58;;;;;;;;;;;;;;;25.16;33.86;100981.59;5081417;28;1099;-42
2023/05/15 05:04:25;;;;;;;;;;;;;;;25.02;34.19;100978.56;5072216;28;1148;-43
2023/05/15 05:06:50;;;;;;;;;;;;;;;24.93;34.23;100984.88;5079359;28;1091;-43
2023/05/15 05:09:17;;;;;;;;;;;;;;;25.14;33.82;100981.75;5065229;28;1183;-43
2023/05/15 05:11:43;;;;;;;;;;;;;;;25.14;33.60;100962.91;5076498;28;1033;-45
2023/05/15 05:14:09;;;;;;;;;;;;;;;25.02;33.79;100940.88;5075949;28;1274;-43
2023/05/15 05:16:35;;;;;;;;;;;;;;;25.15;33.76;100943.09;5076407;28;1972;-43
2023/05/15 05:19:01;;;;;;;;;;;;;;;25.17;33.69;100941.03;5076558;28;1342;-42
2023/05/15 05:21:26;;;;;;;;;;;;;;;25.09;33.74;100959.88;5075774;28;1019;-43
2023/05/15 05:23:52;;;;;;;;;;;;;;;24.92;34.29;100965.19;5058978;28;1215;-43
2023/05/15 05:26:17;;;;;;;;;;;;;;;24.93;34.06;100969.59;5076360;28;860;-43
2023/05/15 05:28:43;;;;;;;;;;;;;;;24.96;34.15;100972.97;5076246;28;1144;-43
2023/05/15 05:31:08;;;;;;;;;;;;;;;24.89;34.41;100956.59;5076095;28;1055;-42
2023/05/15 05:33:34;;;;;;;;;;;;;;;24.82;34.56;100949.16;5076345;28;1044;-42
2023/05/15 05:35:59;;;;;;;;;;;;;;;24.77;34.61;100937.22;5076131;28;1961;-42
2023/05/15 05:38:26;;;;;;;;;;;;;;;24.69;34.69;100940.72;5075756;28;1019;-42
2023/05/15 05:40:52;;;;;;;;;;;;;;;24.98;33.82;100950.25;5076624;28;1032;-43
2023/05/15 05:43:17;;;;;;;;;;;;;;;25.13;33.84;100946.94;5075637;28;994;-41
2023/05/15 05:45:43;;;;;;;;;;;;;;;24.96;34.35;100938.81;5074680;28;1079;-44
2023/05/15 05:48:09;;;;;;;;;;;;;;;25.03;34.48;100939.00;5051927;28;1208;-43
2023/05/15 05:50:34;;;;;;;;;;;;;;;25.28;33.98;100945.28;5079171;28;980;-43
2023/05/15 05:53:00;;;;;;;;;;;;;;;24.99;34.74;100949.25;5075360;28;1320;-42
2023/05/15 05:55:25;;;;;;;;;;;;;;;25.29;34.11;100956.91;5073871;28;1910;-43
2023/05/15 05:57:51;;;;;;;;;;;;;;;25.09;34.30;100961.75;5079437;28;1437;-43
2023/05/15 06:00:17;;;;;;;;;;;;;;;25.16;34.70;100958.22;5077542;28;1127;-42
2023/05/15 06:02:42;;;;;;;;;;;;;;;25.15;34.43;100972.69;5072802;28;1255;-44
2023/05/15 06:05:08;;;;;;;;;;;;;;;25.44;34.63;100981.34;5057867;28;1164;-45
2023/05/15 06:07:34;;;;;;;;;;;;;;;25.40;34.25;100969.19;5069093;28;1319;-44
2023/05/15 06:10:00;;;;;;;;;;;;;;;25.56;33.86;100971.91;5071696;28;1206;-44
2023/05/15 06:12:26;;;;;;;;;;;;;;;25.47;33.61;100974.78;5074013;28;1349;-43
2023/05/15 06:14:52;;;;;;;;;;;;;;;25.53;33.75;100974.94;5074085;28;1902;-41
2023/05/15 06:17:18;;;;;;;;;;;;;;;25.41;33.75;100970.88;5078193;28;1243;-43
2023/05/15 06:19:43;;;;;;;;;;;;;;;25.56;33.51;100971.06;5071580;28;1215;-42
2023/05/15 06:22:09;;;;;;;;;;;;;;;25.49;33.79;100968.19;5072599;28;1231;-43
2023/05/15 06:24:34;;;;;;;;;;;;;;;25.46;33.76;100960.44;5079298;28;1051;-41
2023/05/15 06:27:00;;;;;;;;;;;;;;;25.60;33.23;100972.44;5079447;28;1115;-40
2023/05/15 06:29:25;;;;;;;;;;;;;;;25.38;33.84;100968.53;5079080;28;1075;-40
2023/05/15 06:31:51;;;;;;;;;;;;;;;25.32;34.79;100967.34;5079343;28;1075;-35
2023/05/15 06:34:17;;;;;;;;;;;;;;;25.44;34.02;100955.22;5079250;28;1055;-33
2023/05/15 06:36:42;;;;;;;;;;;;;;;25.47;34.86;100954.06;5079395;28;1914;-35
2023/05/15 06:39:09;;;;;;;;;;;;;;;25.65;34.01;100936.94;5078733;28;903;-36
2023/05/15 06:41:35;;;;;;;;;;;;;;;25.55;33.46;100945.16;5061669;28;1095;-33
2023/05/15 06:44:01;;;;;;;;;;;;;;;25.73;33.46;100961.19;5078837;28;1035;-32
2023/05/15 06:46:27;;;;;;;;;;;;;;;25.53;33.84;100957.94;5079292;28;1132;-32
2023/05/15 06:48:52;;;;;;;;;;;;;;;25.60;33.16;100963.50;5079128;28;1213;-33
2023/05/15 06:51:18;;;;;;;;;;;;;;;24.76;33.04;100868.25;5072344;28;1035;-34
2023/05/15 06:53:43;;;;;;;;;;;;;;;24.94;32.53;100965.06;5052542;28;1283;-30
2023/05/15 06:56:09;;;;;;;;;;;;;;;24.83;32.52;100955.41;5068235;28;1981;-34
2023/05/15 06:58:34;;;;;;;;;;;;;;;25.31;32.69;100952.19;5068028;28;1203;-30
2023/05/15 07:01:02;;;;;;;;;;;;;;;25.26;32.78;100947.28;5072099;28;1278;-26
2023/05/15 07:03:28;;;;;;;;;;;;;;;24.63;32.26;100936.81;5078216;28;894;-25
2023/05/15 07:05:54;;;;;;;;;;;;;;;24.98;32.02;100931.44;5078687;28;1262;-28
2023/05/15 07:08:20;;;;;;;;;;;;;;;25.48;31.74;100925.28;5078860;28;1147;-23
2023/05/15 07:14:21;;;;;;;;;;;;;;;25.40;32.57;100929.66;5070349;28;1062;-28
2023/05/15 07:16:46;;;;;;;;;;;;;;;25.24;32.83;100927.78;5068928;28;1902;-27
2023/05/15 07:19:12;;;;;;;;;;;;;;;25.22;33.04;100919.03;5077304;28;1171;-30
2023/05/15 07:21:38;;;;;;;;;;;;;;;25.35;32.80;100928.47;5094341;28;1265;-26
2023/05/15 07:24:03;;;;;;;;;;;;;;;25.34;32.99;100921.41;5076713;28;1281;-29
2023/05/15 07:26:30;;;;;;;;;;;;;;;25.62;32.43;100921.94;5064167;28;1199;-30
2023/05/15 07:28:55;;;;;;;;;;;;;;;25.56;32.59;100931.50;5071655;28;1076;-27
2023/05/15 07:31:21;;;;;;;;;;;;;;;25.52;32.55;100935.56;5072354;28;1294;-30
2023/05/15 07:33:46;;;;;;;;;;;;;;;25.65;32.42;100955.78;5061853;28;1269;-26
2023/05/15 07:36:12;;;;;;;;;;;;;;;25.70;32.43;100949.88;5091454;28;1973;-27
2023/05/15 07:38:38;;;;;;;;;;;;;;;25.29;33.23;100943.44;5077725;28;829;-26
2023/05/15 07:41:03;;;;;;;;;;;;;;;25.62;32.87;100931.84;5079203;28;1055;-27
2023/05/15 07:43:29;;;;;;;;;;;;;;;25.70;32.84;100928.34;5070839;28;1148;-24
2023/05/15 07:45:54;;;;;;;;;;;;;;;25.77;32.63;100926.66;5064283;28;1136;-26
2023/05/15 07:48:20;;;;;;;;;;;;;;;25.57;32.99;100921.59;5050471;28;1114;-26
2023/05/15 07:50:46;;;;;;;;;;;;;;;25.51;33.10;100927.63;5069298;28;1337;-26
2023/05/15 07:53:12;;;;;;;;;;;;;;;25.63;32.51;100914.69;5077335;28;1096;-30
2023/05/15 07:55:37;;;;;;;;;;;;;;;25.64;33.28;100916.41;5070912;28;1914;-25
2023/05/15 07:58:03;;;;;;;;;;;;;;;25.79;32.99;100908.47;5074795;28;1484;-25
2023/05/15 08:00:28;;;;;;;;;;;;;;;25.48;33.45;100898.34;5077641;28;1051;-25
2023/05/15 08:02:54;;;;;;;;;;;;;;;25.59;33.51;100907.94;5073924;28;1149;-31
2023/05/15 08:05:20;;;;;;;;;;;;;;;25.55;33.12;100921.75;5069221;28;1222;-26
2023/05/15 08:07:45;;;;;;;;;;;;;;;25.70;32.96;100928.34;5067820;28;1289;-29
2023/05/15 08:10:11;;;;;;;;;;;;;;;25.74;32.91;100935.09;5065941;28;1230;-28
2023/05/15 08:12:36;;;;;;;;;;;;;;;25.54;32.89;100930.00;5073935;28;1273;-25
2023/05/15 08:15:02;;;;;;;;;;;;;;;25.63;32.80;100942.50;5076031;28;1909;-29
2023/05/15 08:17:27;;;;;;;;;;;;;;;25.51;33.00;100944.63;5068624;28;1168;-29
2023/05/15 08:19:53;;;;;;;;;;;;;;;25.57;33.09;100945.84;5075276;28;1179;-26
2023/05/15 08:22:19;;;;;;;;;;;;;;;25.63;32.83;100939.78;5077099;28;1015;-32
2023/05/15 08:24:44;;;;;;;;;;;;;;;25.87;32.77;100939.94;5077317;28;1243;-29
2023/05/15 08:27:10;;;;;;;;;;;;;;;25.27;32.66;100927.47;5076430;28;1079;-31
2023/05/15 08:29:35;;;;;;;;;;;;;;;25.23;32.09;100927.94;5057877;28;1469;-29
2023/05/15 08:32:01;;;;;;;;;;;;;;;25.26;32.46;100930.28;5076706;28;1123;-28
2023/05/15 08:34:27;;;;;;;;;;;;;;;25.40;32.21;100924.28;5077284;28;1072;-28
2023/05/15 08:36:53;;;;;;;;;;;;;;;25.27;32.40;100921.22;5077161;28;1982;-29
2023/05/15 08:39:18;;;;;;;;;;;;;;;25.31;31.89;100923.41;5077318;28;1016;-29
2023/05/15 08:41:50;;;;;;;;;;;;;;;25.30;32.29;100913.66;5075712;28;1063;-25
2023/05/15 08:44:15;;;;;;;;;;;;;;;25.25;32.15;100907.06;5077032;28;1135;-28
2023/05/15 08:46:41;;;;;;;;;;;;;;;25.17;32.23;100907.91;5058948;28;1084;-25
2023/05/15 08:49:10;;;;;;;;;;;;;;;25.30;31.89;100902.03;5058714;28;1128;-30
2023/05/15 08:51:36;;;;;;;;;;;;;;;25.13;32.07;100895.78;5076279;28;973;-30
2023/05/15 08:54:01;;;;;;;;;;;;;;;25.11;32.45;100892.44;5059321;28;1143;-31
2023/05/15 08:56:27;;;;;;;;;;;;;;;25.05;31.82;100897.47;5076132;28;1989;-29
2023/05/15 08:58:52;;;;;;;;;;;;;;;25.11;32.34;100890.56;5076747;28;1180;-32
2023/05/15 09:01:18;;;;;;;;;;;;;;;24.73;31.83;100890.09;5059013;28;1033;-30
2023/05/15 09:03:44;;;;;;;;;;;;;;;24.99;31.41;100883.84;5058059;28;965;-29
2023/05/15 09:06:10;;;;;;;;;;;;;;;25.03;31.89;100880.66;5076490;28;1231;-28
2023/05/15 09:08:35;;;;;;;;;;;;;;;24.99;32.04;100884.66;5071509;28;1267;-26
2023/05/15 09:11:02;;;;;;;;;;;;;;;25.04;31.69;100885.00;5046077;28;1051;-31
2023/05/15 09:13:27;;;;;;;;;;;;;;;25.18;31.33;100893.44;5074867;28;1152;-25
2023/05/15 09:15:53;;;;;;;;;;;;;;;25.24;31.18;100905.41;5056783;28;1930;-30
2023/05/15 09:18:18;;;;;;;;;;;;;;;25.19;31.41;100916.69;5074963;28;1004;-30
2023/05/15 09:20:45;;;;;;;;;;;;;;;25.17;31.62;100908.75;5075506;28;1020;-27
2023/05/15 09:23:30;;;;;;;;;;;;;;;25.43;31.26;100906.94;5057410;28;1155;-28
2023/05/15 09:25:56;;;;;;;;;;;;;;;25.39;31.29;100901.03;5079413;28;1625;-26
2023/05/15 09:28:28;;;;;;;;;;;;;;;25.33;31.79;100900.84;5057701;28;1227;-26
2023/05/15 09:30:58;;;;;;;;;;;;;;;25.34;31.52;100899.88;5076068;28;1203;-28
2023/05/15 09:33:28;;;;;;;;;;;;;;;25.46;31.71;100895.81;5065601;28;1242;-26
2023/05/15 09:35:53;;;;;;;;;;;;;;;25.38;31.88;100882.34;5066982;28;1906;-26
2023/05/15 09:38:19;;;;;;;;;;;;;;;25.36;32.07;100892.47;5064272;28;1255;-27
2023/05/15 09:40:45;;;;;;;;;;;;;;;25.50;31.96;100894.47;5069207;28;1289;-28
2023/05/15 09:43:13;;;;;;;;;;;;;;;25.80;31.06;100896.69;5065064;28;1290;-25
2023/05/15 09:45:38;;;;;;;;;;;;;;;25.66;30.95;100887.41;5066628;28;1108;-30
2023/05/15 09:48:04;;;;;;;;;;;;;;;25.73;31.08;100883.03;5066076;28;1211;-27
2023/05/15 09:50:36;;;;;;;;;;;;;;;25.68;31.29;100871.94;5070682;28;1235;-27
2023/05/15 09:53:02;;;;;;;;;;;;;;;25.76;31.21;100873.75;5077581;28;1286;-30
2023/05/15 09:55:30;;;;;;;;;;;;;;;25.74;30.94;100871.25;5074453;28;1977;-31
2023/05/15 09:58:05;;;;;;;;;;;;;;;25.69;31.53;100873.63;5074899;28;1226;-26
2023/05/15 10:00:31;;;;;;;;;;;;;;;25.67;31.54;100870.25;5075207;28;1060;-31
2023/05/15 10:02:57;;;;;;;;;;;;;;;25.79;31.26;100863.50;5074669;28;1328;-30
2023/05/15 10:05:25;;;;;;;;;;;;;;;25.83;31.16;100860.44;5075618;28;1414;-29
2023/05/15 10:07:52;;;;;;;;;;;;;;;25.89;31.25;100859.78;5074704;28;1289;-29
2023/05/15 10:10:18;;;;;;;;;;;;;;;25.80;31.50;100865.19;5078383;28;1301;-25
2023/05/15 10:12:44;;;;;;;;;;;;;;;25.77;31.19;100859.28;5084004;28;1311;-26
2023/05/15 10:15:09;;;;;;;;;;;;;;;26.03;30.37;100858.22;5073862;28;1981;-24
2023/05/15 10:17:35;;;;;;;;;;;;;;;25.88;31.22;100858.94;5045381;28;1204;-29
2023/05/15 10:20:01;;;;;;;;;;;;;;;25.59;31.94;100857.59;5056287;28;1025;-32
2023/05/15 10:22:29;;;;;;;;;;;;;;;25.57;31.89;100862.31;5074922;28;1211;-27
2023/05/15 10:24:59;;;;;;;;;;;;;;;25.82;31.67;100853.38;5070437;28;1187;-27
2023/05/15 10:27:25;;;;;;;;;;;;;;;26.08;31.20;100849.59;5048534;28;1191;-29
2023/05/15 10:29:50;;;;;;;;;;;;;;;26.24;31.14;100854.13;5076595;28;1328;-26
2023/05/15 10:32:16;;;;;;;;;;;;;;;26.08;31.11;100846.91;5058466;28;1237;-32
2023/05/15 10:34:42;;;;;;;;;;;;;;;25.69;31.09;100852.06;5057664;28;1898;-29
2023/05/15 10:37:08;;;;;;;;;;;;;;;25.55;31.13;100849.03;5077974;28;1096;-29
2023/05/15 10:39:34;;;;;;;;;;;;;;;25.47;31.66;100849.03;5079186;28;1207;-31
2023/05/15 10:41:59;;;;;;;;;;;;;;;25.88;30.74;100860.78;5072708;28;1214;-25
2023/05/15 10:44:25;;;;;;;;;;;;;;;25.92;31.12;100856.75;5060212;28;1147;-26
2023/05/15 10:46:51;;;;;;;;;;;;;;;25.58;33.79;100866.69;5079087;28;1285;-25
2023/05/15 10:49:16;;;;;;;;;;;;;;;25.56;36.33;100869.56;5078894;28;1160;-32
2023/05/15 10:51:42;;;;;;;;;;;;;;;25.74;35.20;100862.34;5060445;28;1060;-28
2023/05/15 10:54:08;;;;;;;;;;;;;;;25.47;38.33;100865.19;5078047;28;1044;-29
2023/05/15 10:56:35;;;;;;;;;;;;;;;25.43;37.12;100863.84;5077937;28;1906;-26
2023/05/15 10:59:05;;;;;;;;;;;;;;;25.27;38.28;100865.53;5079062;28;1103;-28
2023/05/15 11:01:31;;;;;;;;;;;;;;;25.27;37.16;100859.31;5078479;28;1165;-30
2023/05/15 11:04:25;;;;;;;;;;;;;;;25.31;37.11;100849.88;5078327;28;1051;-27
2023/05/15 11:06:50;;;;;;;;;;;;;;;25.35;36.11;100845.84;5076791;28;1530;-26
2023/05/15 11:09:25;;;;;;;;;;;;;;;25.23;35.26;100844.47;5060206;28;1187;-27
2023/05/15 11:11:51;;;;;;;;;;;;;;;25.47;34.73;100846.34;5065520;28;1003;-28
2023/05/15 11:14:19;;;;;;;;;;;;;;;25.54;33.98;100843.81;5077368;28;1161;-28
2023/05/15 11:16:54;;;;;;;;;;;;;;;25.54;34.30;100846.50;5076851;28;1905;-29
2023/05/15 11:19:23;;;;;;;;;;;;;;;25.49;34.42;100846.16;5064013;28;1219;-27
2023/05/15 11:22:06;;;;;;;;;;;;;;;25.50;33.83;100837.91;5067538;28;1235;-28
2023/05/15 11:24:47;;;;;;;;;;;;;;;25.44;34.04;100841.31;5071714;28;1297;-30
2023/05/15 11:27:15;;;;;;;;;;;;;;;25.60;33.74;100842.28;5059854;28;1091;-31
2023/05/15 11:30:00;;;;;;;;;;;;;;;25.60;33.85;100848.50;5078089;28;1157;-29
2023/05/15 11:32:52;;;;;;;;;;;;;;;25.61;33.63;100852.06;5077901;28;1099;-27
2023/05/15 11:35:23;;;;;;;;;;;;;;;25.71;33.28;100843.81;5063629;28;1999;-24
2023/05/15 11:37:53;;;;;;;;;;;;;;;25.73;33.26;100834.53;5074631;28;1093;-27
2023/05/15 11:40:32;;;;;;;;;;;;;;;25.80;33.33;100838.25;5066515;28;1027;-29
2023/05/15 11:43:01;;;;;;;;;;;;;;;25.85;33.16;100850.34;5064256;28;1234;-25
2023/05/15 11:45:28;;;;;;;;;;;;;;;25.88;32.67;100840.06;5077495;28;1234;-26
2023/05/15 11:47:54;;;;;;;;;;;;;;;25.91;33.14;100842.41;5075646;28;1298;-28
2023/05/15 11:50:20;;;;;;;;;;;;;;;25.68;33.63;100839.59;5081635;28;1209;-27
2023/05/15 11:52:47;;;;;;;;;;;;;;;25.90;32.78;100837.19;5067416;28;1281;-26
2023/05/15 11:55:12;;;;;;;;;;;;;;;25.99;32.91;100827.25;5056081;28;1906;-29
2023/05/15 11:57:38;;;;;;;;;;;;;;;25.97;32.95;100827.41;5079305;28;1265;-25
2023/05/15 12:00:05;;;;;;;;;;;;;;;25.96;32.75;100825.72;5080453;28;1250;-24
2023/05/15 12:02:30;;;;;;;;;;;;;;;26.11;32.60;100817.75;5092093;28;1273;-29
2023/05/15 12:04:56;;;;;;;;;;;;;;;25.95;32.75;100817.81;5077005;28;1293;-26
2023/05/15 12:07:21;;;;;;;;;;;;;;;25.93;32.75;100801.81;5076943;28;1109;-30
2023/05/15 12:09:53;;;;;;;;;;;;;;;26.00;32.86;100810.91;5057896;28;1307;-27
2023/05/15 12:12:19;;;;;;;;;;;;;;;25.83;33.08;100802.00;5065918;28;1219;-28
2023/05/15 12:14:45;;;;;;;;;;;;;;;25.92;32.90;100803.66;5076277;28;1886;-28
2023/05/15 12:17:10;;;;;;;;;;;;;;;25.96;32.70;100806.03;5076568;28;962;-26
2023/05/15 12:19:36;;;;;;;;;;;;;;;25.97;32.58;100811.25;5076424;28;1254;-29
2023/05/15 12:22:05;;;;;;;;;;;;;;;25.99;32.98;100809.19;5080403;28;1036;-29
2023/05/15 12:24:31;;;;;;;;;;;;;;;26.11;32.65;100808.84;5094070;28;1317;-26
2023/05/15 12:26:56;;;;;;;;;;;;;;;25.75;33.01;100805.59;5095765;28;1277;-24
2023/05/15 12:29:22;;;;;;;;;;;;;;;25.83;33.09;100810.09;5081564;28;1324;-26
2023/05/15 12:31:52;;;;;;;;;;;;;;;25.78;32.92;100816.00;5058878;28;1270;-28
2023/05/15 12:34:18;;;;;;;;;;;;;;;25.77;32.39;100822.44;5068223;28;1372;-25
2023/05/15 12:36:44;;;;;;;;;;;;;;;25.74;31.97;100830.81;5047812;28;1981;-25
2023/05/15 12:39:09;;;;;;;;;;;;;;;25.61;31.69;100827.81;5051123;28;1254;-27
2023/05/15 12:41:35;;;;;;;;;;;;;;;25.74;31.22;100830.00;5051955;28;1236;-25
2023/05/15 12:44:01;;;;;;;;;;;;;;;25.86;31.39;100833.19;5071642;28;1298;-24
2023/05/15 12:46:30;;;;;;;;;;;;;;;25.64;31.38;100830.19;5065517;28;1325;-25
2023/05/15 12:48:59;;;;;;;;;;;;;;;25.69;31.62;100825.13;5066422;28;1223;-29